If you wish to contribute or participate in the discussions about articles you are invited to join SKYbrary as a registered user

 Actions

Cherbourg-Maupertus Airport

From SKYbrary Wiki

LFRC
Airport
ICAO: LFRC – IATA: CER
Summary
Name Cherbourg-Maupertus Airport
Region Europe
Territory France FR.gif
Location , Basse-Normandie
Serving Cherbourg
Elevation 139.903 m
459 ft
459 ft139.903 m
Type medium airport
Coordinates 49° 39' 0.38" N, 1° 28' 13.01" W
Runways
Designator Length Width Surface ROPS
10/28 2440 m8,005.249 ft
45 m147.638 ft
ASP /


METAR
Observation LFRC 230600Z AUTO 09009KT 9999 FEW014 OVC094 12/10 Q1014 NOSIG
Station Cherbourg / Maupertus
Date/Time 23 October 2019 06:00:00
Wind direction 90°
Wind speed 09 kts
Lowest cloud amount few clouds
Temperature 12°C
Dew point 10°C
Humidity 87%
QNH 1014 hPa
Weather condition n/a